ADDS METAR Data INFO
IDs: Format: Raw Decoded Include TAF

Data at: 0031 UTC 23 Feb 2018

KJXI 230015Z AUTO 33003KT 10SM -TSRA OVC003 12/12 A3018 RMK AO2 LTG DSNT N THRU E T01150115
KJXI 222355Z AUTO 00000KT 1 1/2SM +TSRA OVC003 12/12 A3017 RMK AO2 LTG DSNT N SE AND S P0013 60013 T01150115 10116 20084
KJXI 222335Z AUTO 00000KT 2SM TSRA 12/12 A3018 RMK AO2 LTG DSNT N THRU S P0002 T01150115
KJXI 222315Z AUTO 00000KT 3/4SM RA 12/12 A3016 RMK AO2 LTG DSNT E THRU W P0001 T01150115
KJXI 222255Z AUTO 00000KT 1/2SM FG OVC003 12/12 A3017 RMK AO2 LTG DSNT E AND S T01150115
KJXI 222235Z AUTO 00000KT 1SM BR OVC003 12/12 A3017 RMK AO2 LTG DSNT SE AND S T01150115
KJXI 222215Z AUTO 00000KT 3/4SM BR OVC003 12/12 A3016 RMK AO2 LTG DSNT N THRU S T01150115
KJXI 222155Z AUTO 00000KT 1 1/2SM BR 12/12 A3015 RMK AO2 LTG DSNT N AND SE T01150115
KJXI 222135Z AUTO 09004KT 1 1/2SM BR 11/11 A3017 RMK AO2 LTG DSNT N T01110111
KJXI 222115Z AUTO 08003KT 1 1/4SM BR 11/11 A3017 RMK AO2 T01100110
KJXI 222055Z AUTO 07004KT 1 3/4SM BR 11/11 A3017 RMK AO2 LTG DSNT N T01080108
KJXI 222035Z AUTO 08004KT 7SM OVC003 11/11 A3017 RMK AO2 LTG DSNT N T01070107
KJXI 222015Z AUTO 07006KT 1 1/2SM RA OVC003 10/10 A3018 RMK AO2 T01030103
KJXI 221955Z AUTO 07005KT 3SM -DZ OVC003 10/10 A3019 RMK AO2 LTG DSNT NW T01040104
KJXI 221935Z AUTO 06003KT 3SM BR OVC003 10/10 A3020 RMK AO2 LTG DSNT N AND NW T01020102
KJXI 221915Z AUTO 08005KT 2 1/2SM BR OVC003 10/10 A3021 RMK AO2 LTG DSNT N AND NW T01020102
KJXI 221855Z AUTO 04003KT 2SM BR OVC003 10/10 A3022 RMK AO2 LTG DSNT N AND NE T01000100
KJXI 221835Z AUTO 08004KT 1 3/4SM BR 10/10 A3023 RMK AO2 LTG DSNT N AND NE T00970097
KJXI 221815Z AUTO 00000KT 1 1/2SM TS BR 09/09 A3024 RMK AO2 LTG DSNT N T00900090
KJXI 221755Z AUTO 00000KT 1 1/4SM BR 08/08 A3025 RMK AO2 LTG DSNT N AND NW 60029 T00830083 10083 20047
KJXI 221735Z AUTO 00000KT 1 1/2SM BR 08/08 A3027 RMK AO2 LTG DSNT NW THRU NE T00810081
KJXI 221715Z AUTO 28003KT 4SM BR OVC003 08/08 A3028 RMK AO2 LTG DSNT NW THRU NE T00800080
KJXI 221655Z AUTO 01003KT 4SM RA OVC003 08/08 A3026 RMK AO2 LTG DSNT NW P0010 T00750075
KJXI 221615Z AUTO 00000KT 3SM RA OVC003 07/07 A3027 RMK AO2 LTG DSNT W THRU NE P0005 T00700070
KJXI 221555Z AUTO 31003KT 7SM -VCTSRA OVC003 07/07 A3027 RMK AO2 LTG DSNT ALQS P0019 T00670067
KJXI 221535Z AUTO 18003KT 3/4SM +VCTSRA 07/07 A3028 RMK AO2 LTG DSNT ALQS P0007 T00650065
KJXI 221515Z AUTO 02005KT 1SM BR 06/06 A3025 RMK AO2 LTG DSNT S AND W T00610061
KJXI 221455Z AUTO 02004KT 2SM VCTS BR 06/06 A3026 RMK AO2 LTG DSNT E AND SW T00590059
KJXI 221435Z AUTO 35005KT 3/4SM VCTS BR OVC002 06/06 A3026 RMK AO2 LTG DSNT SE T00560056
KJXI 221415Z AUTO 00000KT 1/2SM FG 05/05 A3027 RMK AO2 LTG DSNT S T00520052
KJXI 221355Z AUTO 34004KT 1/2SM FG OVC003 05/05 A3028 RMK AO2 T00510051
KJXI 221335Z AUTO 34003KT 1/2SM VCTS FG 05/05 A3028 RMK AO2 T00500050
KJXI 221315Z AUTO 35003KT 3/4SM BR 05/05 A3027 RMK AO2 T00500050
KJXI 221255Z AUTO 33005KT 1 1/4SM BR 05/05 A3026 RMK AO2 T00480048
KJXI 221235Z AUTO 35004KT 1SM BR OVC003 05/05 A3026 RMK AO2 T00490049
KJXI 221215Z AUTO 00000KT 1SM BR 05/05 A3027 RMK AO2 LTG DSNT SE T00480048
KJXI 221155Z AUTO 32005KT 1 1/4SM BR 05/05 A3026 RMK AO2 LTG DSNT E AND SE 70228 T00480048 10090 20048
KJXI 221135Z AUTO 32007KT 1 1/4SM BR OVC003 05/05 A3025 RMK AO2 LTG DSNT SE AND S T00500050
KJXI 221115Z AUTO 32004KT 1 1/4SM BR 05/05 A3025 RMK AO2 T00500050
KJXI 221055Z AUTO 31003KT 1 1/4SM BR 05/05 A3025 RMK AO2 LTG DSNT S T00510051
KJXI 221035Z AUTO 31004KT 1 1/2SM BR 05/05 A3025 RMK AO2 T00510051
KJXI 221015Z AUTO 00000KT 1 3/4SM TS BR 05/05 A3025 RMK AO2 T00510051
KJXI 220955Z AUTO 30004KT 2SM BR 05/05 A3024 RMK AO2 LTG DSNT S T00520052
KJXI 220935Z AUTO 32006KT 2 1/2SM BR 05/05 A3024 RMK AO2 LTG DSNT E T00530053
KJXI 220915Z AUTO 32004KT 1 3/4SM TS BR 06/06 A3024 RMK AO2 LTG DSNT E T00550055
KJXI 220855Z AUTO 30004KT 1 1/2SM BR 06/06 A3024 RMK AO2 LTG DSNT SE T00580058
KJXI 220835Z AUTO 32004KT 1 1/4SM BR OVC003 06/06 A3024 RMK AO2 T00600060
KJXI 220815Z AUTO 32004KT 1 1/2SM BR OVC003 07/07 A3024 RMK AO2 LTG DSNT SE T00660066
KJXI 220755Z AUTO 31003KT 1 3/4SM BR OVC003 07/07 A3024 RMK AO2 T00740074
KJXI 220735Z AUTO 32004KT 2SM BR OVC005 08/08 A3025 RMK AO2 LTG DSNT E AND SE T00760076
KJXI 220715Z AUTO 31004KT 2SM -DZ OVC003 08/08 A3025 RMK AO2 LTG DSNT SE AND S T00800080
KJXI 220655Z AUTO 32004KT 1 3/4SM DZ OVC003 09/09 A3024 RMK AO2 LTG DSNT E THRU S T00850085
KJXI 220635Z AUTO 00000KT 1 3/4SM BR OVC003 09/09 A3025 RMK AO2 LTG DSNT E AND SE T00870087
KJXI 220615Z AUTO 29003KT 2SM BR OVC003 09/09 A3025 RMK AO2 T00890089
KJXI 220555Z AUTO 30004KT 2SM BR OVC003 09/09 A3024 RMK AO2 LTG DSNT SE 60047 T00900090 10100 20053 401280042
KJXI 220535Z AUTO 30003KT 2 1/2SM BR OVC003 09/09 A3025 RMK AO2 T00900090
KJXI 220515Z AUTO 30005KT 7SM OVC003 09/09 A3024 RMK AO2 LTG DSNT SE T00900089
KJXI 220455Z AUTO 30005KT 10SM OVC005 10/09 A3024 RMK AO2 LTG DSNT E P0001 T00950094
KJXI 220435Z AUTO 00000KT 10SM OVC005 10/10 A3024 RMK AO2 P0001 T00990097
KJXI 220415Z AUTO 00000KT 10SM -RA OVC005 10/10 A3022 RMK AO2 LTG DSNT E THRU S P0001 T01000097
KJXI 220355Z AUTO 06006KT 10SM -VCTSRA OVC005 10/10 A3019 RMK AO2 LTG DSNT S P0005 T00960095
KJXI 220035Z AUTO 34007KT 7SM RA SCT005 SCT020 OVC043 07/07 A3020 RMK AO2 LTG DSNT SE AND S P0008 T00700068
KJXI 220015Z AUTO 36006KT 10SM TSRA BKN005 BKN008 OVC045 06/06 A3022 RMK AO2 LTG DSNT E AND S P0002 T00600059
KJXI 212355Z AUTO 35009G15KT 10SM -DZ OVC005 05/05 A3023 RMK AO2 LTG DSNT SE THRU W P0001 60072 T00530051 10127 20042
KJXI 212335Z AUTO 35008G14KT 7SM RA OVC007 05/04 A3023 RMK AO2 P0001 T00450042
KJXI 212315Z AUTO 32010G19KT 10SM DZ OVC007 04/04 A3024 RMK AO2 LTG DSNT S AND SW T00420038
KJXI 212255Z AUTO 33010G20KT 10SM -RA OVC005 05/05 A3023 RMK AO2 P0014 T00540051
KJXI 212235Z AUTO 30012G25KT 7SM -RA OVC005 08/08 A3022 RMK AO2 LTG DSNT SW P0012 T00810078
KJXI 212215Z AUTO 32008KT 4SM +RA OVC003 11/10 A3013 RMK AO2 LTG DSNT SE AND SW P0004 T01050104
KJXI 212155Z AUTO 32007KT 5SM RA OVC003 11/11 A3012 RMK AO2 LTG DSNT SE AND S P0015 T01110109
KJXI 212135Z AUTO 33006KT 4SM RA BKN007 OVC010 13/13 A3020 RMK AO2 P0012 T01260125
KJXI 212115Z AUTO 33005KT 7SM RA OVC007 13/13 A3019 RMK AO2 P0002 T01260125
KJXI 212055Z AUTO 35004KT 4SM RA BKN007 OVC012 13/13 A3018 RMK AO2 LTG DSNT SE P0017 60042 T01260125
KJXI 212035Z AUTO 03005KT 10SM DZ OVC009 13/12 A3016 RMK AO2 LTG DSNT SE P0004 T01260124
KJXI 212015Z AUTO 06004KT 10SM RA OVC009 13/12 A3015 RMK AO2 P0002 T01250123
KJXI 211955Z AUTO 06006KT 10SM RA OVC009 12/12 A3018 RMK AO2 LTG DSNT S P0013 T01210121
KJXI 211915Z AUTO 04005KT 7SM RA OVC003 11/11 A3019 RMK AO2 P0003 T01080108
KJXI 211855Z AUTO 03007KT 10SM -RA OVC003 10/10 A3016 RMK AO2 P0012 T01000100
KJXI 211835Z AUTO 06006KT 7SM RA OVC003 09/09 A3016 RMK AO2 LTG DSNT SE P0010 T00850085
KJXI 211815Z AUTO 03006KT 7SM RA OVC003 07/07 A3016 RMK AO2 P0003 T00710071
KJXI 211755Z AUTO 01006KT 10SM RA OVC003 07/07 A3017 RMK AO2 LTG DSNT SE P0017 60109 T00650065 10065 20052
KJXI 211735Z AUTO 01007KT 3SM RA OVC003 06/06 A3017 RMK AO2 P0015 T00620062
KJXI 211715Z AUTO 36004KT 5SM RA BKN005 BKN010 OVC044 06/06 A3020 RMK AO2 LTG DSNT SE P0006 T00600058
KJXI 211655Z AUTO 36004KT 5SM RA OVC005 06/06 A3020 RMK AO2 LTG DSNT SE P0015 T00570056
KJXI 211635Z AUTO 34006KT 5SM RA OVC005 06/06 A3020 RMK AO2 LTG DSNT S P0008 T00550055
KJXI 211615Z AUTO 34008G16KT 10SM TSDZ OVC005 05/05 A3018 RMK AO2 LTG DSNT SE AND S P0001 T00540053
KJXI 211555Z AUTO 33007KT 10SM DZ OVC005 06/06 A3019 RMK AO2 LTG DSNT S P0008 T00550055
KJXI 211535Z AUTO 32011KT 7SM -RA BKN005 OVC008 06/06 A3019 RMK AO2 P0008 T00560055
KJXI 211515Z AUTO 32009G16KT 7SM RA OVC003 06/06 A3020 RMK AO2 P0004 T00560055
KJXI 211455Z AUTO 33009G14KT 3SM +RA OVC003 06/06 A3018 RMK AO2 P0031 60069 T00580057
KJXI 211435Z AUTO 35007KT 1 1/4SM -RA OVC003 06/06 A3018 RMK AO2 P0019 T00580057
KJXI 211415Z AUTO 34004KT 5SM RA OVC003 06/06 A3018 RMK AO2 LTG DSNT S P0005 T00560055
KJXI 211355Z AUTO 33004KT 10SM RA BKN003 OVC016 06/06 A3016 RMK AO2 P0016 T00560055
KJXI 211335Z AUTO 34007KT 10SM -RA SCT003 BKN016 OVC050 06/05 A3015 RMK AO2 P0014 T00550053
KJXI 211255Z AUTO 32006KT 2SM -VCTSRA OVC005 06/06 A3018 RMK AO2 LTG DSNT SE AND S P0022 T00560055
KJXI 211235Z AUTO 30005KT 10SM -VCTSRA OVC005 06/06 A3016 RMK AO2 LTG DSNT E THRU S P0006 T00580057